createdAt,value
2018-06-03T00:02:17.996Z,82.23
2018-06-03T00:04:45.947Z,74.23
2018-06-03T00:07:13.881Z,77.30
2018-06-03T00:09:42.405Z,78.20
2018-06-03T00:12:10.260Z,94.25
2018-06-03T00:14:38.349Z,82.20
2018-06-03T00:17:06.363Z,82.60
2018-06-03T00:19:34.413Z,85.13
2018-06-03T00:22:02.377Z,80.73
2018-06-03T00:24:30.332Z,88.07
2018-06-03T00:26:58.348Z,85.97
2018-06-03T00:29:26.341Z,78.83
2018-06-03T00:31:54.402Z,77.47
2018-06-03T00:34:22.403Z,80.77
2018-06-03T00:36:50.391Z,82.60
2018-06-03T00:39:18.457Z,81.67
2018-06-03T00:41:46.420Z,71.87
2018-06-03T00:44:14.389Z,88.43
2018-06-03T00:46:42.357Z,75.07
2018-06-03T00:49:11.027Z,79.23
2018-06-03T00:51:38.997Z,78.80
2018-06-03T00:54:06.971Z,79.83
2018-06-03T00:56:46.457Z,83.80
2018-06-03T00:59:14.451Z,82.53
2018-06-03T01:01:42.496Z,80.93
2018-06-03T01:04:11.388Z,102.70
2018-06-03T01:06:39.426Z,78.43
2018-06-03T01:09:07.400Z,86.23
2018-06-03T01:11:35.206Z,76.60
2018-06-03T01:14:02.988Z,85.27
2018-06-03T01:16:30.943Z,85.00
2018-06-03T01:18:58.909Z,75.40
2018-06-03T01:21:26.932Z,76.00
2018-06-03T01:23:54.921Z,71.67
2018-06-03T01:26:25.469Z,77.63
2018-06-03T01:28:53.463Z,79.90
2018-06-03T01:31:21.484Z,74.67
2018-06-03T01:33:49.437Z,74.30
2018-06-03T01:36:17.393Z,83.57
2018-06-03T01:38:45.381Z,78.60
2018-06-03T01:41:13.455Z,78.03
2018-06-03T01:43:42.050Z,82.60
2018-06-03T01:46:09.969Z,77.40
2018-06-03T01:48:37.932Z,79.80
2018-06-03T01:51:05.933Z,75.57
2018-06-03T01:53:33.892Z,77.30
2018-06-03T01:56:01.870Z,84.17
2018-06-03T01:58:29.803Z,85.20
2018-06-03T02:00:57.767Z,85.10
2018-06-03T02:03:25.876Z,86.33
2018-06-03T02:05:53.845Z,80.80
2018-06-03T02:08:21.897Z,84.23
2018-06-03T02:10:49.890Z,82.60
2018-06-03T02:13:17.881Z,81.87
2018-06-03T02:15:45.820Z,85.93
2018-06-03T02:18:13.893Z,86.23
2018-06-03T02:20:42.654Z,85.40
2018-06-03T02:23:10.412Z,91.73
2018-06-03T02:25:38.392Z,91.53
2018-06-03T02:28:06.382Z,88.60
2018-06-03T02:30:34.325Z,87.77
2018-06-03T02:33:02.306Z,93.63
2018-06-03T02:35:30.289Z,84.07
2018-06-03T02:37:58.252Z,89.57
2018-06-03T02:40:26.230Z,92.57
2018-06-03T02:42:54.202Z,84.47
2018-06-03T02:45:22.163Z,97.87
2018-06-03T02:47:50.121Z,88.53
2018-06-03T02:50:18.108Z,87.30
2018-06-03T02:52:46.100Z,85.90
2018-06-03T02:55:14.029Z,83.03
2018-06-03T02:57:41.989Z,87.87
2018-06-03T03:00:09.964Z,89.63
2018-06-03T03:02:37.982Z,89.03
2018-06-03T03:05:06.037Z,85.77
2018-06-03T03:07:34.114Z,95.53
2018-06-03T03:10:02.052Z,97.50
2018-06-03T03:12:30.009Z,88.40
2018-06-03T03:14:58.008Z,90.60
2018-06-03T03:17:26.049Z,96.40
2018-06-03T03:19:54.222Z,93.70
2018-06-03T03:22:22.196Z,94.40
2018-06-03T03:24:49.997Z,88.13
2018-06-03T03:27:18.052Z,93.37
2018-06-03T03:29:46.019Z,97.73
2018-06-03T03:32:13.982Z,95.80
2018-06-03T03:34:41.953Z,98.43
2018-06-03T03:37:10.030Z,88.77
2018-06-03T03:39:38.063Z,92.17
2018-06-03T03:42:06.017Z,91.13
2018-06-03T03:44:33.968Z,90.80
2018-06-03T03:47:01.946Z,92.03
2018-06-03T03:49:29.865Z,89.73
2018-06-03T03:51:57.833Z,93.37
2018-06-03T03:54:25.921Z,89.77
2018-06-03T03:56:53.891Z,94.20
2018-06-03T03:59:21.928Z,90.30
2018-06-03T04:01:49.917Z,92.60
2018-06-03T04:04:17.895Z,93.87
2018-06-03T04:06:45.867Z,89.80
2018-06-03T04:09:14.569Z,86.93
2018-06-03T04:11:42.616Z,81.97
2018-06-03T04:14:10.584Z,88.57
2018-06-03T04:16:38.568Z,89.40
2018-06-03T04:19:06.520Z,91.10
2018-06-03T04:21:34.485Z,88.60
2018-06-03T04:24:02.427Z,88.50
2018-06-03T04:26:30.407Z,96.47
2018-06-03T04:28:58.365Z,92.53
2018-06-03T04:31:26.370Z,95.30
2018-06-03T04:33:54.188Z,81.20
2018-06-03T04:36:22.154Z,95.17
2018-06-03T04:38:50.178Z,83.77
2018-06-03T04:41:18.427Z,92.03
2018-06-03T04:43:46.399Z,85.10
2018-06-03T04:46:15.164Z,94.15
2018-06-03T04:48:43.208Z,84.60
2018-06-03T04:51:11.191Z,89.27
2018-06-03T04:53:39.216Z,92.20
2018-06-03T04:56:07.334Z,96.93
2018-06-03T04:58:35.283Z,93.40
2018-06-03T05:01:03.255Z,93.30
2018-06-03T05:03:31.180Z,91.80
2018-06-03T05:05:59.254Z,92.23
2018-06-03T05:08:27.247Z,98.97
2018-06-03T05:10:55.318Z,90.43
2018-06-03T05:13:23.287Z,98.20
2018-06-03T05:15:51.252Z,91.87
2018-06-03T05:18:19.200Z,85.77
2018-06-03T05:20:47.169Z,97.93
2018-06-03T05:23:15.751Z,90.72
2018-06-03T05:25:43.733Z,86.10
2018-06-03T05:28:11.748Z,89.27
2018-06-03T05:30:39.717Z,88.10
2018-06-03T05:33:07.753Z,85.10
2018-06-03T05:35:35.779Z,88.87
2018-06-03T05:38:03.732Z,91.23
2018-06-03T05:40:31.664Z,83.17
2018-06-03T05:42:59.641Z,84.87
2018-06-03T05:45:27.683Z,84.13
2018-06-03T05:47:55.680Z,82.90
2018-06-03T05:50:23.648Z,85.00
2018-06-03T05:52:51.713Z,82.30
2018-06-03T05:55:19.662Z,85.40
2018-06-03T05:57:47.701Z,84.67
2018-06-03T06:00:16.136Z,89.40
2018-06-03T06:02:44.100Z,81.57
2018-06-03T06:05:12.073Z,87.23
2018-06-03T06:07:40.032Z,83.33
2018-06-03T06:10:08.009Z,83.20
2018-06-03T06:12:35.995Z,79.40
2018-06-03T06:15:03.944Z,88.07
2018-06-03T06:17:31.960Z,83.87
2018-06-03T06:19:59.932Z,73.00
2018-06-03T06:22:27.956Z,82.00
2018-06-03T06:24:55.908Z,78.97
2018-06-03T06:27:24.936Z,83.60
2018-06-03T06:29:52.905Z,79.80
2018-06-03T06:32:20.834Z,66.43
2018-06-03T06:34:48.808Z,72.67
2018-06-03T06:37:16.776Z,75.83
2018-06-03T06:39:44.808Z,81.17
2018-06-03T06:42:12.784Z,76.13
2018-06-03T06:44:40.767Z,75.83
2018-06-03T06:47:08.741Z,73.40
2018-06-03T06:49:36.701Z,86.93
2018-06-03T06:52:04.650Z,72.03
2018-06-03T06:54:32.612Z,77.13
2018-06-03T06:57:00.636Z,75.70
2018-06-03T06:59:28.593Z,69.37
2018-06-03T07:01:58.489Z,77.67
2018-06-03T07:04:26.413Z,74.53
2018-06-03T07:06:54.380Z,67.57
2018-06-03T07:09:22.334Z,62.40
2018-06-03T07:11:50.406Z,62.50
2018-06-03T07:14:18.389Z,58.33
2018-06-03T07:16:47.188Z,61.37
2018-06-03T07:19:15.127Z,65.83
2018-06-03T07:21:43.127Z,62.37
2018-06-03T07:24:11.072Z,67.17
2018-06-03T07:26:39.056Z,62.40
2018-06-03T07:29:07.037Z,60.40
2018-06-03T07:31:34.977Z,60.67
2018-06-03T07:34:03.068Z,62.13
2018-06-03T07:36:31.022Z,60.27
2018-06-03T07:38:58.905Z,66.30
2018-06-03T07:41:26.863Z,63.53
2018-06-03T07:43:54.867Z,62.10
2018-06-03T07:46:22.889Z,66.00
2018-06-03T07:48:50.959Z,66.37
2018-06-03T07:51:18.929Z,66.23
2018-06-03T07:53:47.773Z,71.83
2018-06-03T07:56:16.360Z,59.10
2018-06-03T07:58:44.312Z,65.90
2018-06-03T08:01:12.393Z,61.20
2018-06-03T08:03:40.437Z,65.47
2018-06-03T08:06:08.450Z,63.27
2018-06-03T08:08:36.427Z,63.00
2018-06-03T08:11:04.392Z,70.07
2018-06-03T08:13:32.412Z,59.90
2018-06-03T08:16:00.353Z,69.57
2018-06-03T08:18:28.300Z,63.50
2018-06-03T08:20:56.268Z,65.30
2018-06-03T08:23:24.267Z,68.20
2018-06-03T08:25:52.261Z,59.90
2018-06-03T08:28:20.394Z,62.00
2018-06-03T08:30:48.340Z,59.10
2018-06-03T08:33:16.334Z,57.90
2018-06-03T08:35:44.112Z,63.17
2018-06-03T08:38:12.156Z,53.87
2018-06-03T08:40:40.153Z,55.97
2018-06-03T08:43:08.120Z,60.10
2018-06-03T08:45:36.173Z,53.53
2018-06-03T08:48:04.131Z,53.27
2018-06-03T08:50:32.183Z,46.00
2018-06-03T08:53:00.183Z,50.73
2018-06-03T08:55:28.150Z,52.50
2018-06-03T08:57:56.118Z,55.93
2018-06-03T09:00:24.179Z,52.27
2018-06-03T09:02:52.159Z,56.50
2018-06-03T09:05:20.326Z,49.23
2018-06-03T09:07:48.696Z,51.87
2018-06-03T09:10:16.630Z,50.07
2018-06-03T09:12:44.629Z,44.23
2018-06-03T09:15:12.669Z,43.77
2018-06-03T09:17:40.613Z,46.57
2018-06-03T09:20:08.639Z,41.50
2018-06-03T09:22:36.633Z,40.60
2018-06-03T09:25:04.821Z,38.20
2018-06-03T09:27:32.739Z,44.20
2018-06-03T09:30:00.719Z,42.97
2018-06-03T09:32:28.741Z,38.03
2018-06-03T09:34:56.755Z,44.97
2018-06-03T09:37:24.774Z,48.30
2018-06-03T09:39:52.790Z,42.70
2018-06-03T09:42:20.859Z,42.30
2018-06-03T09:44:49.162Z,44.50
2018-06-03T09:47:17.209Z,40.03
2018-06-03T09:49:45.154Z,34.77
2018-06-03T09:52:12.961Z,47.57
2018-06-03T09:54:40.908Z,41.33
2018-06-03T09:57:08.731Z,33.20
2018-06-03T09:59:36.675Z,35.30
2018-06-03T10:02:04.662Z,38.17
2018-06-03T10:04:32.438Z,38.63
2018-06-03T10:07:00.369Z,37.87
2018-06-03T10:09:28.310Z,40.97
2018-06-03T10:11:56.308Z,34.33
2018-06-03T10:14:24.290Z,30.53
2018-06-03T10:16:52.258Z,30.50
2018-06-03T10:19:20.221Z,37.67
2018-06-03T10:21:48.199Z,35.43
2018-06-03T10:24:16.144Z,26.77
2018-06-03T10:26:44.104Z,34.13
2018-06-03T10:29:12.166Z,27.73
2018-06-03T10:31:40.152Z,26.63
2018-06-03T10:34:08.139Z,29.67
2018-06-03T10:36:36.085Z,36.43
2018-06-03T10:39:06.564Z,30.48
2018-06-03T10:41:34.552Z,31.43
2018-06-03T10:44:02.521Z,35.50
2018-06-03T10:46:30.478Z,31.10
2018-06-03T10:48:58.438Z,27.63
2018-06-03T10:51:26.469Z,25.40
2018-06-03T10:53:54.441Z,24.27
2018-06-03T10:56:22.447Z,31.20
2018-06-03T10:58:50.404Z,29.57
2018-06-03T11:01:18.396Z,26.23
2018-06-03T11:03:46.343Z,35.30
2018-06-03T11:06:14.255Z,31.13
2018-06-03T11:08:42.208Z,23.73
2018-06-03T11:11:10.161Z,30.00
2018-06-03T11:13:38.141Z,24.07
2018-06-03T11:16:06.105Z,29.90
2018-06-03T11:18:34.069Z,23.83
2018-06-03T11:21:02.017Z,25.97
2018-06-03T11:23:30.006Z,22.73
2018-06-03T11:25:57.949Z,24.23
2018-06-03T11:28:25.972Z,25.60
2018-06-03T11:30:53.918Z,23.43
2018-06-03T11:33:21.883Z,25.30
2018-06-03T11:35:50.746Z,30.43
2018-06-03T11:38:18.719Z,27.73
2018-06-03T11:40:46.696Z,30.03
2018-06-03T11:43:14.685Z,26.30
2018-06-03T11:45:42.619Z,25.50
2018-06-03T11:48:10.572Z,30.77
2018-06-03T11:50:38.547Z,27.00
2018-06-03T11:53:06.547Z,23.63
2018-06-03T11:55:34.494Z,27.90
2018-06-03T11:58:41.298Z,29.57
2018-06-03T12:01:09.528Z,25.30
2018-06-03T12:03:37.697Z,27.40
2018-06-03T12:06:05.890Z,26.30
2018-06-03T12:08:33.929Z,26.10
2018-06-03T12:11:01.869Z,28.10
2018-06-03T12:13:29.854Z,29.03
2018-06-03T12:15:57.874Z,29.23
2018-06-03T12:18:25.832Z,26.57
2018-06-03T12:20:53.905Z,29.80
2018-06-03T12:23:21.946Z,30.57
2018-06-03T12:25:49.912Z,26.70
2018-06-03T12:28:17.985Z,27.27
2018-06-03T12:30:45.928Z,25.73
2018-06-03T12:33:13.880Z,26.73
2018-06-03T12:35:41.898Z,29.97
2018-06-03T12:38:09.909Z,26.80
2018-06-03T12:40:37.912Z,24.37
2018-06-03T12:43:05.913Z,28.30
2018-06-03T12:45:33.950Z,27.00
2018-06-03T12:48:01.901Z,27.37
2018-06-03T12:50:29.860Z,33.33
2018-06-03T12:52:57.896Z,28.10
2018-06-03T12:55:25.857Z,28.90
2018-06-03T12:57:53.822Z,29.00
2018-06-03T13:00:22.026Z,39.10
2018-06-03T13:02:49.965Z,29.17
2018-06-03T13:05:18.008Z,30.43
2018-06-03T13:07:46.045Z,28.27
2018-06-03T13:10:14.008Z,29.40
2018-06-03T13:12:41.992Z,26.83
2018-06-03T13:15:10.001Z,25.73
2018-06-03T13:17:38.473Z,28.83
2018-06-03T13:20:06.729Z,26.10
2018-06-03T13:22:34.690Z,25.37
2018-06-03T13:25:02.742Z,28.53
2018-06-03T13:27:30.756Z,37.80
2018-06-03T13:29:58.706Z,28.67
2018-06-03T13:32:26.655Z,26.87
2018-06-03T13:34:54.613Z,26.73
2018-06-03T13:37:23.000Z,27.50
2018-06-03T13:39:50.966Z,28.37
2018-06-03T13:42:18.935Z,32.00
2018-06-03T13:44:46.882Z,25.20
2018-06-03T13:47:14.871Z,27.20
2018-06-03T13:49:42.840Z,28.73
2018-06-03T13:52:10.879Z,26.60
2018-06-03T13:54:38.889Z,25.83
2018-06-03T13:57:06.859Z,23.20
2018-06-03T13:59:34.792Z,22.97
2018-06-03T14:02:02.748Z,27.37
2018-06-03T14:04:30.725Z,24.03
2018-06-03T14:06:58.696Z,22.87
2018-06-03T14:09:26.753Z,23.20
2018-06-03T14:11:54.719Z,30.23
2018-06-03T14:14:23.469Z,22.40
2018-06-03T14:16:51.437Z,23.60
2018-06-03T14:19:19.499Z,21.37
2018-06-03T14:21:47.471Z,23.20
2018-06-03T14:24:15.424Z,20.23
2018-06-03T14:26:43.433Z,26.57
2018-06-03T14:29:11.428Z,23.33
2018-06-03T14:31:39.399Z,26.15
2018-06-03T14:34:07.341Z,34.90
2018-06-03T14:36:35.272Z,24.83
2018-06-03T14:39:04.182Z,27.23
2018-06-03T14:41:32.262Z,26.10
2018-06-03T14:44:00.645Z,25.90
2018-06-03T14:46:28.709Z,30.60
2018-06-03T14:48:56.692Z,30.60
2018-06-03T14:51:24.645Z,29.70
2018-06-03T14:53:52.614Z,32.67
2018-06-03T14:56:20.704Z,29.27
2018-06-03T14:58:48.607Z,26.80
2018-06-03T15:01:16.594Z,24.13
2018-06-03T15:03:44.550Z,25.00
2018-06-03T15:06:12.517Z,26.43
2018-06-03T15:08:40.498Z,28.03
2018-06-03T15:11:08.457Z,35.27
2018-06-03T15:13:36.437Z,29.90
2018-06-03T15:16:04.496Z,28.10
2018-06-03T15:18:32.454Z,29.57
2018-06-03T15:21:00.473Z,25.97
2018-06-03T15:23:28.504Z,31.33
2018-06-03T15:25:56.524Z,24.17
2018-06-03T15:28:24.474Z,25.63
2018-06-03T15:30:52.555Z,23.83
2018-06-03T15:33:20.557Z,23.33
2018-06-03T15:35:48.560Z,26.53
2018-06-03T15:38:16.516Z,32.27
2018-06-03T15:40:44.505Z,25.07
2018-06-03T15:43:12.509Z,26.83
2018-06-03T15:45:40.450Z,27.03
2018-06-03T15:48:08.452Z,26.00
2018-06-03T15:50:36.439Z,27.33
2018-06-03T15:53:04.443Z,22.67
2018-06-03T15:55:32.418Z,24.93
2018-06-03T15:58:00.516Z,23.70
2018-06-03T16:00:28.483Z,35.87
2018-06-03T16:02:56.447Z,28.50
2018-06-03T16:05:25.114Z,28.60
2018-06-03T16:07:53.147Z,24.50
2018-06-03T16:10:21.142Z,28.33
2018-06-03T16:12:49.123Z,22.20
2018-06-03T16:15:17.054Z,22.10
2018-06-03T16:17:44.997Z,22.53
2018-06-03T16:20:13.068Z,28.83
2018-06-03T16:22:40.980Z,26.03
2018-06-03T16:25:08.965Z,25.03
2018-06-03T16:27:37.112Z,22.40
2018-06-03T16:30:05.004Z,25.40
2018-06-03T16:32:32.946Z,22.53
2018-06-03T16:35:00.890Z,21.37
2018-06-03T16:37:28.954Z,17.40
2018-06-03T16:39:56.977Z,21.57
2018-06-03T16:42:25.589Z,20.83
2018-06-03T16:44:53.685Z,19.30
2018-06-03T16:47:21.789Z,20.07
2018-06-03T16:49:50.023Z,19.00
2018-06-03T16:52:18.292Z,21.00
2018-06-03T16:54:46.513Z,23.53
2018-06-03T16:57:14.768Z,25.60
2018-06-03T16:59:42.901Z,23.37
2018-06-03T17:02:10.964Z,19.70
2018-06-03T17:04:39.088Z,19.00
2018-06-03T17:07:07.193Z,17.20
2018-06-03T17:09:35.296Z,23.37
2018-06-03T17:12:03.354Z,24.43
2018-06-03T17:14:31.441Z,22.37
2018-06-03T17:16:59.512Z,23.43
2018-06-03T17:19:27.462Z,21.87
2018-06-03T17:21:56.313Z,20.37
2018-06-03T17:24:24.301Z,20.47
2018-06-03T17:26:52.301Z,20.60
2018-06-03T17:29:20.251Z,27.77
2018-06-03T17:31:48.208Z,20.93
2018-06-03T17:34:16.250Z,20.27
2018-06-03T17:36:44.252Z,21.03
2018-06-03T17:39:12.283Z,20.73
2018-06-03T17:41:40.298Z,19.20
2018-06-03T17:44:08.273Z,20.47
2018-06-03T17:46:36.221Z,22.50
2018-06-03T17:49:04.234Z,23.43
2018-06-03T17:51:32.204Z,23.97
2018-06-03T17:54:00.004Z,24.83
2018-06-03T17:56:27.979Z,19.73
2018-06-03T17:58:56.888Z,21.27
2018-06-03T18:01:24.858Z,22.60
2018-06-03T18:03:52.629Z,22.87
2018-06-03T18:06:20.595Z,20.47
2018-06-03T18:08:48.588Z,23.17
2018-06-03T18:11:16.597Z,18.70
2018-06-03T18:13:44.568Z,24.63
2018-06-03T18:16:12.578Z,20.97
2018-06-03T18:18:40.528Z,21.10
2018-06-03T18:21:08.476Z,25.03
2018-06-03T18:23:36.428Z,23.10
2018-06-03T18:26:04.428Z,20.05
2018-06-03T18:28:32.453Z,20.32
2018-06-03T18:31:00.390Z,19.70
2018-06-03T18:33:28.535Z,20.67
2018-06-03T18:35:57.404Z,22.23
2018-06-03T18:38:25.365Z,21.53
2018-06-03T18:40:53.333Z,21.43
2018-06-03T18:43:21.328Z,22.43
2018-06-03T18:45:49.289Z,23.40
2018-06-03T18:48:17.227Z,24.50
2018-06-03T18:50:45.309Z,27.00
2018-06-03T18:53:13.316Z,20.97
2018-06-03T18:55:41.281Z,25.60
2018-06-03T18:58:09.354Z,24.53
2018-06-03T19:00:37.349Z,28.10
2018-06-03T19:03:05.310Z,25.50
2018-06-03T19:05:33.392Z,30.50
2018-06-03T19:08:01.321Z,26.37
2018-06-03T19:10:29.364Z,27.17
2018-06-03T19:12:58.157Z,25.77
2018-06-03T19:15:31.033Z,27.17
2018-06-03T19:17:58.972Z,29.10
2018-06-03T19:20:27.126Z,25.20
2018-06-03T19:22:55.105Z,25.03
2018-06-03T19:25:23.046Z,30.87
2018-06-03T19:27:51.035Z,25.23
2018-06-03T19:30:18.981Z,24.60
2018-06-03T19:32:46.932Z,26.00
2018-06-03T19:35:15.016Z,23.93
2018-06-03T19:37:43.119Z,31.23
2018-06-03T19:40:11.078Z,23.53
2018-06-03T19:42:39.047Z,27.67
2018-06-03T19:45:06.999Z,26.00
2018-06-03T19:47:35.028Z,23.20
2018-06-03T19:50:02.993Z,24.33
2018-06-03T19:52:31.210Z,23.10
2018-06-03T19:54:59.168Z,25.13
2018-06-03T19:57:27.153Z,27.67
2018-06-03T19:59:55.185Z,26.63
2018-06-03T20:02:23.100Z,24.13
2018-06-03T20:04:51.042Z,25.70
2018-06-03T20:07:19.092Z,30.37
2018-06-03T20:09:47.037Z,29.10
2018-06-03T20:12:15.061Z,21.52
2018-06-03T20:14:43.119Z,22.47
2018-06-03T20:17:11.072Z,26.67
2018-06-03T20:19:39.118Z,27.90
2018-06-03T20:22:07.128Z,25.33
2018-06-03T20:24:35.045Z,27.65
2018-06-03T20:27:03.022Z,23.10
2018-06-03T20:29:30.979Z,26.37
2018-06-03T20:31:59.393Z,26.50
2018-06-03T20:34:27.355Z,26.43
2018-06-03T20:36:55.291Z,23.67
2018-06-03T20:39:23.284Z,26.43
2018-06-03T20:41:51.361Z,26.70
2018-06-03T20:44:19.308Z,28.00
2018-06-03T20:46:47.293Z,23.57
2018-06-03T20:49:15.249Z,26.30
2018-06-03T20:51:43.241Z,29.10
2018-06-03T20:54:11.644Z,25.37
2018-06-03T20:56:39.644Z,24.13
2018-06-03T20:59:07.704Z,27.60
2018-06-03T21:01:35.720Z,30.27
2018-06-03T21:04:03.681Z,29.93
2018-06-03T21:06:31.631Z,26.00
2018-06-03T21:09:00.032Z,27.97
2018-06-03T21:11:28.041Z,24.03
2018-06-03T21:13:56.103Z,29.83
2018-06-03T21:16:24.280Z,32.63
2018-06-03T21:18:52.221Z,29.63
2018-06-03T21:21:20.199Z,29.23
2018-06-03T21:23:48.168Z,29.70
2018-06-03T21:26:16.129Z,30.97
2018-06-03T21:28:44.075Z,29.37
2018-06-03T21:31:12.058Z,31.43
2018-06-03T21:33:40.038Z,34.07
2018-06-03T21:36:07.991Z,28.40
2018-06-03T21:38:36.017Z,37.60
2018-06-03T21:41:03.933Z,32.37
2018-06-03T21:43:31.904Z,31.70
2018-06-03T21:46:00.612Z,37.00
2018-06-03T21:48:28.546Z,35.53
2018-06-03T21:50:56.502Z,35.20
2018-06-03T21:53:24.590Z,39.00
2018-06-03T21:55:52.576Z,39.27
2018-06-03T21:58:20.534Z,43.30
2018-06-03T22:00:48.563Z,35.93
2018-06-03T22:03:16.536Z,37.27
2018-06-03T22:05:44.567Z,39.43
2018-06-03T22:08:12.512Z,35.00
2018-06-03T22:10:40.468Z,37.00
2018-06-03T22:13:08.475Z,43.50
2018-06-03T22:15:36.435Z,36.50
2018-06-03T22:18:04.439Z,41.03
2018-06-03T22:20:32.509Z,38.40
2018-06-03T22:23:01.259Z,40.47
2018-06-03T22:25:29.196Z,49.03
2018-06-03T22:27:57.203Z,39.23
2018-06-03T22:30:25.176Z,37.83
2018-06-03T22:32:53.141Z,37.10
2018-06-03T22:35:21.224Z,40.43
2018-06-03T22:37:49.193Z,41.40
2018-06-03T22:40:17.250Z,38.47
2018-06-03T22:42:45.204Z,33.07
2018-06-03T22:45:13.184Z,36.23
2018-06-03T22:47:41.183Z,38.63
2018-06-03T22:50:09.219Z,37.70
2018-06-03T22:52:37.185Z,40.13
2018-06-03T22:55:05.278Z,36.60
2018-06-03T22:57:44.940Z,41.20
2018-06-03T23:00:34.021Z,40.37
2018-06-03T23:03:07.436Z,38.07
2018-06-03T23:05:35.775Z,37.93
2018-06-03T23:08:03.718Z,40.00
2018-06-03T23:10:32.069Z,34.08
2018-06-03T23:13:00.042Z,37.47
2018-06-03T23:15:28.033Z,38.70
2018-06-03T23:17:55.972Z,37.47
2018-06-03T23:20:24.017Z,34.50
2018-06-03T23:22:51.953Z,34.80
2018-06-03T23:25:19.899Z,39.23
2018-06-03T23:27:47.869Z,39.33
2018-06-03T23:30:15.832Z,32.27
2018-06-03T23:32:43.835Z,38.70
2018-06-03T23:35:12.728Z,35.83
2018-06-03T23:37:40.652Z,35.60
2018-06-03T23:40:08.665Z,34.90
2018-06-03T23:42:36.608Z,34.50
2018-06-03T23:45:04.569Z,34.43
2018-06-03T23:47:32.779Z,47.77
2018-06-03T23:50:00.807Z,36.87
2018-06-03T23:52:28.790Z,35.17
2018-06-03T23:54:56.741Z,35.33
2018-06-03T23:57:24.728Z,37.10
2018-06-03T23:59:52.704Z,40.50
